Time;durP1;ratioP1;P1;durP2;ratioP2;P2;SDS_P1;SDS_P2;PMS_P1;PMS_P2;Temp;Humidity;BMP_temperature;BMP_pressure;BME280_temperature;BME280_humidity;BME280_pressure;Samples;Min_cycle;Max_cycle;Signal;HPM_P1;HPM_P2
2023/05/31 00:00:23;;;;;;;;;;;;;;;9.46;80.83;102428.91;5032279;28;20708;-86
2023/05/31 00:02:51;;;;;;;8.33;7.53;;;;;;;9.42;81.34;102432.03;5030979;28;19917;-87
2023/05/31 00:05:16;;;;;;;7.43;6.60;;;;;;;9.38;80.97;102428.78;5031613;28;20077;-86
2023/05/31 00:07:42;;;;;;;8.30;7.40;;;;;;;9.39;81.67;102438.53;5032423;28;20532;-87
2023/05/31 00:10:08;;;;;;;8.75;7.63;;;;;;;9.35;81.78;102442.56;5014033;28;20481;-87
2023/05/31 00:12:33;;;;;;;8.13;7.07;;;;;;;9.35;81.80;102446.06;4995825;28;20367;-87
2023/05/31 00:14:58;;;;;;;8.52;7.30;;;;;;;9.35;81.99;102443.38;5013024;28;20102;-88
2023/05/31 00:17:23;;;;;;;;;;;;;;;9.37;82.58;102446.78;5030356;28;20021;-86
2023/05/31 00:19:49;;;;;;;9.17;7.53;;;;;;;9.40;82.46;102438.41;5032243;28;19955;-87
2023/05/31 00:22:16;;;;;;;8.90;7.45;;;;;;;9.41;82.16;102447.31;5031171;28;20025;-87
2023/05/31 00:24:42;;;;;;;8.77;7.18;;;;;;;9.42;82.16;102446.31;5032135;28;20022;-87
2023/05/31 00:27:08;;;;;;;9.18;7.78;;;;;;;9.45;82.67;102442.47;5031135;28;20107;-87
2023/05/31 00:29:33;;;;;;;;;;;;;;;9.42;82.43;102440.94;5031095;28;20140;-87
2023/05/31 00:31:58;;;;;;;7.40;6.70;;;;;;;9.41;82.44;102431.19;5031468;28;19963;-87
2023/05/31 00:34:24;;;;;;;;;;;;;;;9.37;82.84;102435.16;5022630;28;20296;-87
2023/05/31 00:36:49;;;;;;;9.70;6.88;;;;;;;9.37;82.68;102437.84;5026703;28;19976;-87
2023/05/31 00:39:14;;;;;;;;;;;;;;;9.36;82.71;102433.47;5019311;28;20113;-88
2023/05/31 00:41:40;;;;;;;7.93;6.93;;;;;;;9.35;83.18;102429.94;5020665;28;20384;-87
2023/05/31 00:44:05;;;;;;;8.57;7.68;;;;;;;9.35;82.80;102437.19;5040988;28;20018;-87
2023/05/31 00:46:36;;;;;;;;;;;;;;;9.33;83.24;102433.78;5044389;28;20055;-87
2023/05/31 00:49:02;;;;;;;9.48;7.22;;;;;;;9.31;82.81;102431.22;5031231;28;19932;-87
2023/05/31 00:51:40;;;;;;;9.25;7.18;;;;;;;9.30;83.38;102428.69;5003787;28;20037;-87
2023/05/31 00:54:10;;;;;;;9.63;6.97;;;;;;;9.28;83.34;102430.69;5016420;28;20033;-87
2023/05/31 00:56:35;;;;;;;7.95;6.90;;;;;;;9.28;83.92;102430.69;5013399;28;20033;-87
2023/05/31 00:59:00;;;;;;;9.88;7.60;;;;;;;9.27;83.39;102435.19;5000191;28;20026;-87
2023/05/31 01:01:26;;;;;;;;;;;;;;;9.27;83.80;102439.75;5018712;28;20026;-87
2023/05/31 01:03:56;;;;;;;10.45;7.15;;;;;;;9.25;83.52;102440.75;5045347;28;19916;-88
2023/05/31 01:06:23;;;;;;;8.15;6.35;;;;;;;9.24;84.04;102447.09;5019963;28;20036;-88
2023/05/31 01:08:48;;;;;;;7.63;6.82;;;;;;;9.22;84.52;102446.41;5034422;28;20500;-87
2023/05/31 01:11:21;;;;;;;8.32;7.45;;;;;;;9.19;83.77;102444.00;5036980;28;20040;-87
2023/05/31 01:14:13;;;;;;;11.23;7.50;;;;;;;9.17;84.25;102446.03;5005897;28;20021;-88
2023/05/31 01:16:42;;;;;;;10.30;7.75;;;;;;;9.12;84.14;102448.31;5031575;28;20033;-88
2023/05/31 01:19:12;;;;;;;8.95;7.80;;;;;;;9.05;84.91;102440.00;5015989;28;20105;-88
2023/05/31 01:21:51;;;;;;;8.90;7.03;;;;;;;9.03;84.77;102441.13;5015237;28;20033;-88
2023/05/31 01:24:26;;;;;;;10.98;7.97;;;;;;;9.01;84.55;102441.28;5023593;28;20026;-87
2023/05/31 01:26:51;;;;;;;8.70;7.22;;;;;;;9.00;85.05;102444.13;5006604;28;20070;-88
2023/05/31 01:29:18;;;;;;;9.05;7.30;;;;;;;8.99;85.06;102439.75;5020090;28;20037;-88
2023/05/31 01:31:45;;;;;;;8.60;7.60;;;;;;;8.95;84.91;102437.34;5033302;28;20091;-88
2023/05/31 01:34:10;;;;;;;8.88;7.57;;;;;;;8.91;85.66;102444.00;5014827;28;20029;-87
2023/05/31 01:36:36;;;;;;;;;;;;;;;8.89;85.33;102437.09;5028558;28;20184;-88
2023/05/31 01:39:01;;;;;;;9.23;7.37;;;;;;;8.84;85.56;102433.97;5033700;28;20288;-88
2023/05/31 01:41:27;;;;;;;9.77;7.57;;;;;;;8.84;85.48;102437.50;4998784;28;20044;-88
2023/05/31 01:43:52;;;;;;;;;;;;;;;8.79;85.63;102447.84;5002754;28;20030;-88
2023/05/31 01:46:20;;;;;;;9.77;7.15;;;;;;;8.79;85.93;102448.69;5016718;28;20280;-88
2023/05/31 01:48:46;;;;;;;10.10;6.82;;;;;;;8.74;86.72;102450.13;5018121;28;20026;-88
2023/05/31 01:51:11;;;;;;;;;;;;;;;8.71;86.61;102447.72;5018373;28;20080;-88
2023/05/31 01:53:36;;;;;;;13.00;8.43;;;;;;;8.71;86.84;102439.66;5031272;28;19980;-88
2023/05/31 01:56:02;;;;;;;;;;;;;;;8.68;86.46;102437.25;5017422;28;20033;-88
2023/05/31 01:58:27;;;;;;;9.82;7.38;;;;;;;8.64;87.11;102439.41;5018715;28;19912;-87
2023/05/31 02:00:53;;;;;;;;;;;;;;;8.59;87.39;102442.53;5001688;28;20033;-88
2023/05/31 02:03:18;;;;;;;10.30;7.70;;;;;;;8.59;87.44;102437.16;5036331;28;19956;-88
2023/05/31 02:05:58;;;;;;;;;;;;;;;8.59;87.90;102442.53;5039433;28;20049;-88
2023/05/31 02:08:24;;;;;;;11.43;7.80;;;;;;;8.57;87.67;102439.13;5024830;28;20369;-88
2023/05/31 02:10:50;;;;;;;;;;;;;;;8.58;87.56;102440.84;5034513;28;20036;-88
2023/05/31 02:13:25;;;;;;;12.90;7.53;;;;;;;8.59;87.37;102439.84;5036018;28;19920;-88
2023/05/31 02:15:51;;;;;;;12.00;8.43;;;;;;;8.60;88.06;102440.69;5015930;28;20113;-88
2023/05/31 02:18:17;;;;;;;;;;;;;;;8.60;87.94;102444.22;5036113;28;20133;-92
2023/05/31 02:20:45;;;;;;;10.68;7.53;;;;;;;8.60;87.38;102436.16;5036096;28;19952;-83
2023/05/31 02:23:11;;;;;;;10.95;7.93;;;;;;;8.58;88.10;102430.09;5031507;28;20029;-83
2023/05/31 02:25:39;;;;;;;;;;;;;;;8.54;87.85;102434.06;5024854;28;20067;-85
2023/05/31 02:28:06;;;;;;;9.88;7.10;;;;;;;8.52;88.15;102438.72;5021212;28;19988;-85
2023/05/31 02:30:32;;;;;;;12.68;7.53;;;;;;;8.47;87.98;102440.97;5032677;28;20503;-84
2023/05/31 02:33:05;;;;;;;11.82;7.88;;;;;;;8.45;88.66;102438.41;5022179;28;20376;-84
2023/05/31 02:35:30;;;;;;;11.88;7.95;;;;;;;8.40;88.25;102438.00;5030500;28;20413;-85
2023/05/31 02:37:55;;;;;;;;;;;;;;;8.39;88.50;102441.66;5025227;28;20465;-84
2023/05/31 02:40:21;;;;;;;12.00;8.07;;;;;;;8.39;88.89;102436.28;5031317;28;19917;-84
2023/05/31 02:42:46;;;;;;;;;;;;;;;8.40;89.37;102432.63;5014761;28;20037;-85
2023/05/31 02:45:11;;;;;;;12.80;8.67;;;;;;;8.38;88.67;102429.25;5025279;28;19940;-84
2023/05/31 02:47:38;;;;;;;11.70;8.18;;;;;;;8.30;88.60;102427.25;5032768;28;20033;-85
2023/05/31 02:50:07;;;;;;;11.70;7.85;;;;;;;8.32;89.11;102427.97;5032408;28;20041;-83
2023/05/31 02:52:33;;;;;;;12.95;8.55;;;;;;;8.32;88.67;102414.56;5032798;28;20067;-83
2023/05/31 02:54:58;;;;;;;;;;;;;;;8.28;89.43;102426.59;5033920;28;20144;-83
2023/05/31 02:57:24;;;;;;;12.40;8.00;;;;;;;8.27;89.34;102429.41;5033866;28;19952;-83
2023/05/31 02:59:50;;;;;;;15.00;8.85;;;;;;;8.25;89.28;102423.31;5047309;28;20089;-83
2023/05/31 03:02:15;;;;;;;14.65;8.60;;;;;;;8.27;89.41;102426.72;5038963;28;20061;-83
2023/05/31 03:04:44;;;;;;;;;;;;;;;8.27;89.74;102421.34;5033696;28;20469;-83
2023/05/31 03:07:10;;;;;;;15.07;9.05;;;;;;;8.23;89.85;102419.94;5033252;28;19964;-83
2023/05/31 03:09:36;;;;;;;13.95;8.70;;;;;;;8.24;89.92;102414.44;5033264;28;20156;-83
2023/05/31 03:12:01;;;;;;;;;;;;;;;8.23;90.46;102426.16;5033540;28;20033;-83
2023/05/31 03:14:26;;;;;;;14.95;8.77;;;;;;;8.18;90.13;102412.31;5032622;28;19917;-83
2023/05/31 03:16:52;;;;;;;;;;;;;;;8.14;90.78;102410.91;5032977;28;20040;-83
2023/05/31 03:19:17;;;;;;;14.87;8.53;;;;;;;8.14;90.65;102414.44;5033661;28;20357;-83
2023/05/31 03:21:42;;;;;;;;;;;;;;;8.14;90.10;102414.44;5034120;28;20350;-83
2023/05/31 03:24:08;;;;;;;18.00;9.00;;;;;;;8.13;90.80;102417.25;5030932;28;20319;-83
2023/05/31 03:26:33;;;;;;;;;;;;;;;8.16;90.88;102414.28;5033300;28;20378;-83
2023/05/31 03:28:58;;;;;;;15.87;9.30;;;;;;;8.15;90.15;102412.59;5032743;28;19924;-83
2023/05/31 03:31:23;;;;;;;;;;;;;;;8.12;90.66;102411.06;5033717;28;20124;-83
2023/05/31 03:33:50;;;;;;;17.77;9.93;;;;;;;8.11;90.76;102406.69;5034901;28;20020;-83
2023/05/31 03:36:18;;;;;;;17.38;9.20;;;;;;;8.13;91.16;102409.22;5034440;28;20030;-83
2023/05/31 03:38:43;;;;;;;16.23;9.77;;;;;;;8.10;90.57;102417.56;5032398;28;20025;-84
2023/05/31 03:41:08;;;;;;;;;;;;;;;8.09;90.97;102414.03;5031480;28;20036;-83
2023/05/31 03:43:37;;;;;;;18.97;9.67;;;;;;;8.14;90.54;102410.91;5032243;28;19929;-83
2023/05/31 03:46:05;;;;;;;16.58;9.77;;;;;;;8.22;90.91;102415.56;5030649;28;20041;-83
2023/05/31 03:48:31;;;;;;;15.75;8.85;;;;;;;8.24;90.56;102417.13;5031709;28;20144;-83
2023/05/31 03:50:56;;;;;;;;;;;;;;;8.24;90.16;102419.81;5033412;28;20057;-83
2023/05/31 03:53:21;;;;;;;19.23;9.23;;;;;;;8.27;90.95;102415.97;5031469;28;19913;-83
2023/05/31 03:55:46;;;;;;;;;;;;;;;8.31;90.76;102422.75;5031507;28;20272;-83
2023/05/31 03:58:12;;;;;;;15.73;9.13;;;;;;;8.33;90.55;102418.94;5032295;28;20386;-83
2023/05/31 04:00:38;;;;;;;;;;;;;;;8.37;90.89;102426.69;5031801;28;20412;-84
2023/05/31 04:03:04;;;;;;;15.17;8.20;;;;;;;8.47;90.31;102419.50;5053234;23;19963;-85
2023/05/31 04:05:30;;;;;;;17.70;9.57;;;;;;;8.51;89.60;102423.59;5032792;28;20284;-83
2023/05/31 04:07:59;;;;;;;;;;;;;;;8.53;89.32;102420.78;5038338;28;20098;-92
2023/05/31 04:10:24;;;;;;;18.02;9.63;;;;;;;8.57;90.05;102423.03;5060054;28;19904;-93
2023/05/31 04:12:49;;;;;;;;;;;;;;;8.65;89.96;102425.81;5069142;28;20029;-94
2023/05/31 04:15:15;;;;;;;17.63;9.07;;;;;;;8.70;89.78;102422.72;5056713;28;19916;-84
2023/05/31 04:17:40;;;;;;;16.63;9.30;;;;;;;8.78;89.54;102420.13;5053657;28;20025;-84
2023/05/31 04:20:08;;;;;;;;;;;;;;;8.86;88.54;102424.78;5066953;28;20028;-89
2023/05/31 04:22:35;;;;;;;15.80;8.75;;;;;;;8.90;88.95;102423.50;5052935;28;19924;-82
2023/05/31 04:25:01;;;;;;;17.55;9.50;;;;;;;9.17;88.90;102437.97;5048936;28;20057;-82
2023/05/31 04:27:32;;;;;;;15.57;9.35;;;;;;;9.46;87.33;102441.47;5035270;28;20038;-81
2023/05/31 04:29:58;;;;;;;15.68;8.85;;;;;;;9.68;86.14;102442.91;5031608;28;20021;-83
2023/05/31 04:32:27;;;;;;;;;;;;;;;9.99;84.96;102438.00;5033672;28;20479;-83
2023/05/31 04:34:57;;;;;;;14.90;8.90;;;;;;;10.60;82.67;102437.34;5041171;28;19968;-82
2023/05/31 04:37:32;;;;;;;19.42;9.73;;;;;;;11.02;80.36;102428.50;5030330;28;20032;-83
2023/05/31 04:39:58;;;;;;;15.98;9.32;;;;;;;11.30;78.14;102433.66;5030902;28;20385;-83
2023/05/31 04:42:26;;;;;;;13.63;9.18;;;;;;;11.30;78.64;102439.06;5031118;28;20044;-83
2023/05/31 04:44:57;;;;;;;16.65;8.75;;;;;;;11.22;78.70;102439.84;5030980;28;20168;-83
2023/05/31 04:47:24;;;;;;;16.58;8.70;;;;;;;11.13;79.14;102437.28;5030832;28;20029;-83
2023/05/31 04:49:49;;;;;;;17.10;9.45;;;;;;;11.07;79.16;102426.16;5031965;28;20083;-82
2023/05/31 04:52:15;;;;;;;18.60;10.45;;;;;;;10.66;80.83;102431.31;5032565;28;20033;-83
2023/05/31 04:54:40;;;;;;;17.67;10.27;;;;;;;10.59;81.00;102424.91;5031747;28;20032;-82
2023/05/31 04:57:09;;;;;;;18.33;9.90;;;;;;;10.45;81.88;102429.84;5034789;28;20477;-82
2023/05/31 04:59:34;;;;;;;16.27;8.48;;;;;;;10.72;81.79;102432.53;5035841;28;20041;-83
2023/05/31 05:02:00;;;;;;;17.42;10.20;;;;;;;11.30;79.88;102433.66;5034393;28;20096;-84
2023/05/31 05:04:27;;;;;;;16.98;10.20;;;;;;;12.06;76.45;102435.53;5035584;28;20103;-82
2023/05/31 05:06:53;;;;;;;18.05;9.90;;;;;;;12.66;74.59;102434.31;5035287;28;20419;-83
2023/05/31 05:09:18;;;;;;;16.52;9.65;;;;;;;13.25;71.98;102443.09;5034657;28;20052;-82
2023/05/31 05:11:44;;;;;;;15.88;10.50;;;;;;;13.86;70.05;102439.75;5037805;28;20040;-82
2023/05/31 05:14:10;;;;;;;16.80;10.73;;;;;;;14.41;67.33;102440.50;5048788;28;20468;-83
2023/05/31 05:16:36;;;;;;;15.57;10.35;;;;;;;14.80;65.61;102446.78;5046020;28;20029;-83
2023/05/31 05:19:01;;;;;;;15.85;10.43;;;;;;;15.16;64.35;102441.41;5036508;28;20034;-83
2023/05/31 05:21:28;;;;;;;14.40;9.98;;;;;;;15.59;63.08;102443.41;5034697;28;20026;-83
2023/05/31 05:23:54;;;;;;;16.98;10.73;;;;;;;15.72;62.57;102437.28;5034954;28;20039;-83
2023/05/31 05:26:20;;;;;;;15.95;10.98;;;;;;;15.85;62.09;102450.19;5035322;28;20021;-83
2023/05/31 05:28:45;;;;;;;15.63;10.73;;;;;;;15.98;61.35;102435.06;5034207;28;20053;-83
2023/05/31 05:31:10;;;;;;;17.20;11.48;;;;;;;16.28;60.65;102437.63;5034378;28;20028;-83
2023/05/31 05:33:36;;;;;;;15.25;11.18;;;;;;;16.78;58.81;102443.00;5035201;28;20024;-83
2023/05/31 05:36:02;;;;;;;18.48;10.90;;;;;;;17.22;57.72;102440.97;5034746;28;20508;-83
2023/05/31 05:38:27;;;;;;;17.92;10.90;;;;;;;17.54;57.02;102439.44;5033640;28;20037;-83
2023/05/31 05:40:53;;;;;;;16.20;10.63;;;;;;;17.35;56.79;102443.75;5034496;28;20511;-83
2023/05/31 05:43:18;;;;;;;19.63;11.60;;;;;;;17.61;56.00;102446.75;5016927;28;20380;-84
2023/05/31 05:45:44;;;;;;;14.98;10.77;;;;;;;17.90;55.80;102455.66;5033893;28;20067;-83
2023/05/31 05:48:10;;;;;;;14.88;10.57;;;;;;;18.29;54.27;102456.75;5035268;28;20032;-83
2023/05/31 05:50:35;;;;;;;14.48;11.00;;;;;;;18.44;53.66;102451.09;5035503;28;20021;-83
2023/05/31 05:53:00;;;;;;;15.52;10.70;;;;;;;18.47;53.73;102447.94;5036108;28;20076;-83
2023/05/31 05:55:26;;;;;;;18.13;10.77;;;;;;;18.16;54.04;102444.78;5037204;28;20385;-83
2023/05/31 05:58:00;;;;;;;16.38;11.38;;;;;;;18.28;54.74;102450.47;5035183;28;20025;-83
2023/05/31 06:00:26;;;;;;;16.40;10.75;;;;;;;18.32;54.54;102437.25;5033370;28;20452;-83
2023/05/31 06:02:51;;;;;;;17.00;11.52;;;;;;;18.81;52.86;102445.16;5034383;28;20033;-84
2023/05/31 06:05:16;;;;;;;14.57;10.27;;;;;;;19.44;51.31;102439.06;5034524;28;20326;-84
2023/05/31 06:07:42;;;;;;;17.27;10.88;;;;;;;19.96;49.91;102443.63;5032191;28;20512;-84
2023/05/31 06:10:08;;;;;;;15.23;10.65;;;;;;;19.73;49.65;102436.81;5033474;28;20037;-83
2023/05/31 06:12:33;;;;;;;15.23;10.30;;;;;;;19.98;49.74;102436.91;5034009;28;20432;-84
2023/05/31 06:15:02;;;;;;;15.93;11.10;;;;;;;20.08;48.24;102436.41;5032974;28;20464;-84
2023/05/31 06:17:27;;;;;;;17.00;10.60;;;;;;;20.37;48.35;102445.00;5034258;28;20056;-84
2023/05/31 06:19:55;;;;;;;15.57;10.45;;;;;;;20.74;47.70;102442.31;5033570;28;20652;-84
2023/05/31 06:22:22;;;;;;;17.58;10.65;;;;;;;21.38;45.85;102451.28;5033666;28;20017;-84
2023/05/31 06:24:47;;;;;;;13.68;10.65;;;;;;;21.09;46.08;102449.09;5033923;28;20021;-84
2023/05/31 06:27:14;;;;;;;15.68;10.05;;;;;;;21.56;44.70;102456.72;5034129;28;20035;-84
2023/05/31 06:29:41;;;;;;;15.85;10.43;;;;;;;21.78;44.20;102451.63;5034270;28;20385;-84
2023/05/31 06:32:13;;;;;;;13.48;9.93;;;;;;;21.61;44.35;102459.66;5016743;28;20432;-84
2023/05/31 06:34:38;;;;;;;15.18;9.90;;;;;;;22.30;43.89;102454.81;5033240;28;20033;-84
2023/05/31 06:37:04;;;;;;;15.55;10.50;;;;;;;22.88;42.25;102457.81;5033328;28;20432;-84
2023/05/31 06:39:30;;;;;;;13.85;10.25;;;;;;;23.04;40.92;102451.56;5032762;28;20026;-84
2023/05/31 06:41:55;;;;;;;13.95;10.25;;;;;;;23.06;41.19;102460.41;5033539;28;20036;-84
2023/05/31 06:44:20;;;;;;;14.05;9.80;;;;;;;23.13;41.40;102455.59;5033781;28;20518;-84
2023/05/31 06:46:52;;;;;;;14.40;9.95;;;;;;;22.03;43.06;102456.06;5033393;28;20487;-85
2023/05/31 06:49:17;;;;;;;15.02;10.38;;;;;;;22.78;42.54;102463.91;5032722;28;20532;-84
2023/05/31 06:51:42;;;;;;;12.63;9.93;;;;;;;23.11;41.38;102456.94;5033149;28;20029;-85
2023/05/31 06:54:09;;;;;;;16.60;10.05;;;;;;;23.87;40.11;102454.03;5032736;28;20102;-85
2023/05/31 06:56:34;;;;;;;14.27;9.70;;;;;;;23.71;40.04;102443.84;5033384;28;20025;-85
2023/05/31 06:59:00;;;;;;;15.88;10.80;;;;;;;24.34;39.17;102446.53;5033073;28;20091;-85
2023/05/31 07:01:25;;;;;;;15.23;10.27;;;;;;;24.56;38.80;102443.84;5033194;28;20477;-85
2023/05/31 07:03:50;;;;;;;12.10;9.18;;;;;;;25.38;36.84;102444.09;5033469;28;20056;-85
2023/05/31 07:06:16;;;;;;;14.88;9.95;;;;;;;24.68;37.93;102439.09;5033892;28;20095;-84
2023/05/31 07:08:41;;;;;;;14.73;10.10;;;;;;;25.16;36.92;102437.75;5033380;28;20025;-83
2023/05/31 07:11:06;;;;;;;14.82;9.80;;;;;;;24.94;37.29;102442.19;5039264;28;20354;-83
2023/05/31 07:13:32;;;;;;;13.52;10.48;;;;;;;25.53;36.78;102448.13;5032411;28;20021;-82
2023/05/31 07:15:57;;;;;;;13.90;10.23;;;;;;;24.87;37.99;102443.47;5033323;28;20354;-85
2023/05/31 07:18:23;;;;;;;11.63;9.02;;;;;;;25.75;37.06;102439.81;5033599;28;20028;-85
2023/05/31 07:20:48;;;;;;;14.63;10.20;;;;;;;26.14;35.58;102434.06;5031292;28;20018;-83
2023/05/31 07:23:13;;;;;;;11.95;8.75;;;;;;;26.67;35.10;102435.25;5032358;28;20080;-83
2023/05/31 07:25:39;;;;;;;12.88;9.43;;;;;;;26.13;35.85;102431.59;5035785;28;20381;-85
2023/05/31 07:28:04;;;;;;;12.90;9.55;;;;;;;26.61;34.76;102442.69;5034563;28;20048;-83
2023/05/31 07:30:29;;;;;;;13.55;9.75;;;;;;;26.98;33.85;102440.94;5033199;28;20033;-83
2023/05/31 07:32:55;;;;;;;13.50;9.18;;;;;;;27.32;33.36;102440.50;5035115;28;20500;-83
2023/05/31 07:35:20;;;;;;;12.75;9.05;;;;;;;27.86;32.31;102433.72;5033226;28;20086;-85
2023/05/31 07:37:46;;;;;;;12.05;8.60;;;;;;;27.04;33.42;102435.16;5039911;28;20013;-84
2023/05/31 07:40:13;;;;;;;11.68;8.00;;;;;;;27.71;33.47;102434.53;5034042;28;20025;-84
2023/05/31 07:42:39;;;;;;;13.48;8.98;;;;;;;28.11;32.00;102429.28;5032279;28;20117;-84
2023/05/31 07:45:04;;;;;;;10.32;8.63;;;;;;;28.50;31.28;102427.84;5031789;28;20022;-84
2023/05/31 07:47:31;;;;;;;13.23;7.57;;;;;;;28.99;30.87;102427.13;5033158;28;20100;-84
2023/05/31 07:49:57;;;;;;;13.55;8.70;;;;;;;28.48;31.60;102430.88;5032268;28;20025;-84
2023/05/31 07:52:22;;;;;;;11.63;8.50;;;;;;;28.68;31.35;102430.00;5031566;28;20041;-83
2023/05/31 07:54:48;;;;;;;12.57;8.38;;;;;;;28.43;31.11;102425.34;5032490;28;20029;-84
2023/05/31 07:57:14;;;;;;;10.95;8.25;;;;;;;28.71;30.61;102426.66;5031463;28;20017;-84
2023/05/31 07:59:40;;;;;;;10.52;8.32;;;;;;;28.83;30.37;102431.09;5030577;28;20041;-84
2023/05/31 08:02:05;;;;;;;10.88;8.27;;;;;;;29.22;30.75;102433.09;5032491;28;20041;-83
2023/05/31 08:04:31;;;;;;;11.00;7.45;;;;;;;29.48;30.00;102425.47;5032484;28;20381;-84
2023/05/31 08:06:57;;;;;;;11.63;8.05;;;;;;;29.56;29.96;102426.84;5032360;28;20109;-83
2023/05/31 08:09:23;;;;;;;12.93;8.43;;;;;;;29.47;29.66;102432.16;5033193;28;20032;-84
2023/05/31 08:11:48;;;;;;;11.73;7.55;;;;;;;29.62;29.02;102431.22;5032600;28;20034;-84
2023/05/31 08:14:14;;;;;;;12.45;7.53;;;;;;;29.02;30.57;102420.19;5033934;28;20022;-84
2023/05/31 08:16:41;;;;;;;16.13;8.23;;;;;;;29.82;28.97;102426.63;5036536;28;20077;-84
2023/05/31 08:19:06;;;;;;;13.18;7.72;;;;;;;29.46;29.03;102424.13;5034172;28;20029;-84
2023/05/31 08:21:32;;;;;;;14.73;8.02;;;;;;;29.16;30.45;102424.00;5031848;28;20035;-84
2023/05/31 08:24:00;;;;;;;10.95;7.47;;;;;;;28.92;29.64;102414.72;5032728;28;20031;-84
2023/05/31 08:26:26;;;;;;;11.80;8.48;;;;;;;29.11;30.47;102418.50;5015666;28;20042;-84
2023/05/31 08:28:51;;;;;;;10.98;7.65;;;;;;;29.70;30.02;102413.09;5032263;28;20021;-84
2023/05/31 08:31:17;;;;;;;10.18;7.05;;;;;;;30.12;28.12;102418.34;5031802;28;20095;-84
2023/05/31 08:33:58;;;;;;;13.07;7.50;;;;;;;29.82;28.16;102420.25;5032299;28;20027;-84
2023/05/31 08:36:23;;;;;;;10.63;7.18;;;;;;;27.83;31.27;102415.72;5031465;28;20513;-84
2023/05/31 08:38:49;;;;;;;14.05;6.80;;;;;;;28.93;29.87;102406.09;5032281;28;20025;-85
2023/05/31 08:41:16;;;;;;;12.13;6.63;;;;;;;30.21;28.41;102416.56;5030830;28;20029;-85
2023/05/31 08:43:41;;;;;;;10.55;7.13;;;;;;;30.80;27.29;102416.50;5014393;28;20120;-84
2023/05/31 08:46:07;;;;;;;10.93;7.22;;;;;;;30.37;27.71;102417.25;5032549;28;20029;-84
2023/05/31 08:48:38;;;;;;;10.10;6.93;;;;;;;30.59;27.47;102407.59;5032043;28;20022;-84
2023/05/31 08:51:05;;;;;;;11.27;6.93;;;;;;;31.31;26.34;102406.66;5031439;28;20163;-84
2023/05/31 08:53:30;;;;;;;12.18;7.13;;;;;;;30.67;26.69;102410.53;5032342;28;20535;-83
2023/05/31 08:55:56;;;;;;;10.18;6.22;;;;;;;31.81;25.67;102405.31;5014452;28;20025;-82
2023/05/31 08:58:21;;;;;;;10.40;6.15;;;;;;;32.20;25.30;102402.09;4997580;28;20034;-84
2023/05/31 09:00:46;;;;;;;11.02;6.22;;;;;;;32.43;24.93;102393.03;4994602;28;20091;-84
2023/05/31 09:03:12;;;;;;;12.10;5.95;;;;;;;31.89;24.66;102399.88;4994342;28;20393;-83
2023/05/31 09:05:37;;;;;;;8.57;5.50;;;;;;;31.12;25.45;102398.25;5008034;28;20072;-83
2023/05/31 09:08:11;;;;;;;9.95;6.20;;;;;;;30.79;26.90;102395.38;5030491;28;20083;-83
2023/05/31 09:10:36;;;;;;;9.18;6.30;;;;;;;31.53;26.17;102391.25;5013564;28;20045;-83
2023/05/31 09:13:02;;;;;;;9.95;5.80;;;;;;;32.03;24.93;102380.41;5031295;28;20021;-83
2023/05/31 09:15:28;;;;;;;8.57;5.30;;;;;;;32.17;24.59;102382.38;5013708;28;20382;-83
2023/05/31 09:17:56;;;;;;;12.27;5.72;;;;;;;30.55;26.02;102387.88;5031038;28;20515;-83
2023/05/31 09:20:34;;;;;;;9.27;4.88;;;;;;;30.83;26.17;102383.34;5071183;23;20500;-84
2023/05/31 09:23:18;;;;;;;8.65;5.63;;;;;;;31.32;25.69;102385.19;5029369;28;20029;-84
2023/05/31 09:26:14;;;;;;;8.88;5.40;;;;;;;31.83;25.13;102384.38;5031993;28;20041;-84
2023/05/31 09:28:52;;;;;;;7.95;5.18;;;;;;;31.50;24.99;102376.00;5031397;28;20419;-84
2023/05/31 09:31:17;;;;;;;10.50;5.18;;;;;;;30.91;26.00;102373.50;5031627;28;20025;-84
2023/05/31 09:34:06;;;;;;;9.18;5.38;;;;;;;30.70;26.45;102361.84;5030098;28;20106;-84
2023/05/31 09:36:35;;;;;;;7.88;4.80;;;;;;;31.64;25.17;102364.06;5031116;28;20508;-84
2023/05/31 09:39:04;;;;;;;7.00;4.15;;;;;;;31.86;24.67;102361.50;5031820;28;20025;-84
2023/05/31 09:41:30;;;;;;;7.70;5.18;;;;;;;32.48;23.70;102367.84;5033957;28;20034;-84
2023/05/31 09:43:55;;;;;;;8.30;4.55;;;;;;;32.58;23.69;102361.22;5047096;28;20026;-84
2023/05/31 09:46:24;;;;;;;7.57;4.65;;;;;;;32.54;23.66;102360.19;5037519;28;20033;-84
2023/05/31 09:49:03;;;;;;;6.47;4.32;;;;;;;32.16;24.24;102348.09;5034941;28;20034;-84
2023/05/31 09:51:30;;;;;;;7.63;4.50;;;;;;;31.65;24.87;102354.59;5034678;28;20030;-84
2023/05/31 09:53:55;;;;;;;9.40;4.57;;;;;;;31.23;25.85;102362.78;5035855;28;20021;-84
2023/05/31 09:56:21;;;;;;;6.10;4.28;;;;;;;31.65;24.38;102354.59;5017350;28;20132;-83
2023/05/31 09:58:50;;;;;;;5.82;3.35;;;;;;;32.06;23.55;102343.56;5033851;28;20527;-84
2023/05/31 10:01:16;;;;;;;6.18;3.30;;;;;;;32.83;23.18;102350.69;5035767;28;20064;-84
2023/05/31 10:03:43;;;;;;;7.78;3.15;;;;;;;32.97;22.34;102348.69;5034007;28;20029;-84
2023/05/31 10:06:09;;;;;;;8.18;3.92;;;;;;;32.56;23.50;102335.63;5033728;28;20034;-83
2023/05/31 10:08:35;;;;;;;7.30;3.90;;;;;;;32.23;23.20;102335.72;5033697;28;20052;-84
2023/05/31 10:11:00;;;;;;;7.78;3.65;;;;;;;31.25;24.36;102339.09;5034756;28;20457;-83
2023/05/31 10:13:30;;;;;;;5.70;3.20;;;;;;;31.08;24.72;102338.78;5032450;28;20422;-83
2023/05/31 10:16:06;;;;;;;6.38;3.70;;;;;;;31.56;23.96;102335.81;5033309;28;20117;-84
2023/05/31 10:18:33;;;;;;;6.07;3.25;;;;;;;31.21;24.37;102328.88;5032808;28;20065;-84
2023/05/31 10:21:22;;;;;;;8.13;3.10;;;;;;;32.07;23.77;102327.69;5033627;28;20124;-84
2023/05/31 10:23:53;;;;;;;7.75;3.40;;;;;;;31.82;23.86;102329.81;5003930;28;20021;-84
2023/05/31 10:26:18;;;;;;;6.78;3.15;;;;;;;32.62;22.76;102331.59;5016817;28;20029;-84
2023/05/31 10:28:59;;;;;;;7.03;3.60;;;;;;;32.37;23.39;102324.63;5034235;28;20368;-84
2023/05/31 10:31:32;;;;;;;8.73;3.03;;;;;;;30.85;24.58;102324.69;5038339;28;20025;-83
2023/05/31 10:34:03;;;;;;;7.05;3.13;;;;;;;31.34;24.55;102310.59;5036762;28;20029;-84
2023/05/31 10:36:28;;;;;;;6.32;3.45;;;;;;;31.59;24.00;102306.53;5019410;28;20029;-84
2023/05/31 10:39:03;;;;;;;6.88;3.40;;;;;;;31.70;24.21;102307.19;5034747;28;20079;-85
2023/05/31 10:41:28;;;;;;;;;;;;;;;31.84;24.10;102305.28;4997174;28;20116;-84
2023/05/31 10:43:56;;;;;;;6.47;3.22;;;;;;;31.51;24.03;102284.97;4997013;28;20014;-84
2023/05/31 10:46:24;;;;;;;9.70;3.03;;;;;;;30.50;25.04;102301.78;4998276;28;20030;-84
2023/05/31 10:48:55;;;;;;;6.75;2.60;;;;;;;31.79;23.50;102296.19;4996509;28;20529;-84
2023/05/31 10:51:51;;;;;;;7.18;2.88;;;;;;;32.04;23.29;102292.88;5022240;28;20105;-84
2023/05/31 10:54:20;;;;;;;4.07;2.75;;;;;;;32.62;22.31;102289.78;5015682;28;20042;-84
2023/05/31 10:56:55;;;;;;;7.35;2.97;;;;;;;32.64;23.43;102276.34;5036438;28;20048;-85
2023/05/31 10:59:21;;;;;;;7.60;3.17;;;;;;;33.57;21.68;102290.84;5031590;28;20041;-84
2023/05/31 11:01:47;;;;;;;7.38;3.50;;;;;;;33.71;21.79;102296.34;5033784;28;20029;-84
2023/05/31 11:04:20;;;;;;;6.63;3.15;;;;;;;33.36;21.57;102296.13;5033694;28;20036;-85
2023/05/31 11:06:46;;;;;;;6.85;3.20;;;;;;;32.58;22.82;102281.19;5034017;28;20163;-85
2023/05/31 11:09:12;;;;;;;5.72;3.20;;;;;;;32.20;23.31;102290.63;5015728;28;20416;-85
2023/05/31 11:11:40;;;;;;;6.80;3.00;;;;;;;31.74;22.81;102283.19;5033551;28;20042;-84
2023/05/31 11:14:10;;;;;;;6.72;2.92;;;;;;;31.53;23.60;102277.97;5033851;28;20036;-85
2023/05/31 11:16:48;;;;;;;5.40;2.75;;;;;;;32.27;23.37;102286.66;5033950;28;20021;-85
2023/05/31 11:19:17;;;;;;;6.70;3.50;;;;;;;29.79;25.82;102280.09;5032911;28;20080;-85
2023/05/31 11:21:52;;;;;;;6.88;3.00;;;;;;;31.22;24.42;102272.97;5033192;28;20060;-85
2023/05/31 11:24:35;;;;;;;7.90;3.25;;;;;;;31.22;24.39;102267.41;5034051;28;20075;-85
2023/05/31 11:27:01;;;;;;;6.85;3.00;;;;;;;31.69;23.63;102269.34;5035345;28;20026;-86
2023/05/31 11:29:48;;;;;;;9.40;2.88;;;;;;;32.62;23.10;102267.47;5034518;28;20452;-85